sensor_id;sensor_type;location;lat;lon;timestamp;P1;durP1;ratioP1;P2;durP2;ratioP2
53714;SDS011;39608;55.630;37.864;2023-03-21T00:04:43;7.53;;;3.85;;
53714;SDS011;39608;55.630;37.864;2023-03-21T00:09:47;8.25;;;3.60;;
53714;SDS011;39608;55.630;37.864;2023-03-21T00:14:49;5.55;;;3.60;;
53714;SDS011;39608;55.630;37.864;2023-03-21T00:19:53;5.72;;;3.60;;
53714;SDS011;39608;55.630;37.864;2023-03-21T00:24:57;4.53;;;3.38;;
53714;SDS011;39608;55.630;37.864;2023-03-21T00:29:59;15.25;;;4.00;;
53714;SDS011;39608;55.630;37.864;2023-03-21T00:35:02;10.27;;;3.85;;
53714;SDS011;39608;55.630;37.864;2023-03-21T00:40:06;5.95;;;3.35;;
53714;SDS011;39608;55.630;37.864;2023-03-21T00:45:10;7.15;;;3.80;;
53714;SDS011;39608;55.630;37.864;2023-03-21T00:50:12;7.22;;;3.70;;
53714;SDS011;39608;55.630;37.864;2023-03-21T00:55:17;6.65;;;3.50;;
53714;SDS011;39608;55.630;37.864;2023-03-21T01:00:20;5.95;;;3.50;;
53714;SDS011;39608;55.630;37.864;2023-03-21T01:05:22;9.90;;;3.28;;
53714;SDS011;39608;55.630;37.864;2023-03-21T01:10:41;8.57;;;3.15;;
53714;SDS011;39608;55.630;37.864;2023-03-21T01:15:45;4.43;;;2.90;;
53714;SDS011;39608;55.630;37.864;2023-03-21T01:20:49;5.45;;;2.97;;
53714;SDS011;39608;55.630;37.864;2023-03-21T01:25:53;5.10;;;2.50;;
53714;SDS011;39608;55.630;37.864;2023-03-21T01:30:56;8.95;;;2.80;;
53714;SDS011;39608;55.630;37.864;2023-03-21T01:35:58;3.58;;;2.65;;
53714;SDS011;39608;55.630;37.864;2023-03-21T01:41:01;7.78;;;3.17;;
53714;SDS011;39608;55.630;37.864;2023-03-21T01:46:09;6.57;;;3.42;;
53714;SDS011;39608;55.630;37.864;2023-03-21T01:51:33;12.38;;;4.15;;
53714;SDS011;39608;55.630;37.864;2023-03-21T01:56:39;8.98;;;3.83;;
53714;SDS011;39608;55.630;37.864;2023-03-21T02:01:45;8.73;;;3.67;;
53714;SDS011;39608;55.630;37.864;2023-03-21T02:06:48;12.90;;;3.90;;
53714;SDS011;39608;55.630;37.864;2023-03-21T02:11:57;7.93;;;3.70;;
53714;SDS011;39608;55.630;37.864;2023-03-21T02:17:05;6.72;;;3.78;;
53714;SDS011;39608;55.630;37.864;2023-03-21T02:27:58;7.03;;;3.53;;
53714;SDS011;39608;55.630;37.864;2023-03-21T02:33:15;7.18;;;3.47;;
53714;SDS011;39608;55.630;37.864;2023-03-21T02:38:31;9.43;;;3.60;;
53714;SDS011;39608;55.630;37.864;2023-03-21T02:43:41;8.93;;;3.85;;
53714;SDS011;39608;55.630;37.864;2023-03-21T02:48:46;6.40;;;3.72;;
53714;SDS011;39608;55.630;37.864;2023-03-21T03:06:29;8.65;;;3.60;;
53714;SDS011;39608;55.630;37.864;2023-03-21T03:11:44;5.97;;;3.50;;
53714;SDS011;39608;55.630;37.864;2023-03-21T03:16:50;7.88;;;4.00;;
53714;SDS011;39608;55.630;37.864;2023-03-21T03:22:03;10.05;;;3.90;;
53714;SDS011;39608;55.630;37.864;2023-03-21T03:27:11;8.32;;;3.85;;
53714;SDS011;39608;55.630;37.864;2023-03-21T03:32:19;7.78;;;3.83;;
53714;SDS011;39608;55.630;37.864;2023-03-21T03:37:28;5.82;;;4.10;;
53714;SDS011;39608;55.630;37.864;2023-03-21T03:42:33;8.65;;;3.63;;
53714;SDS011;39608;55.630;37.864;2023-03-21T03:47:38;7.13;;;3.72;;
53714;SDS011;39608;55.630;37.864;2023-03-21T03:52:45;8.18;;;4.03;;
53714;SDS011;39608;55.630;37.864;2023-03-21T03:57:51;6.95;;;4.13;;
53714;SDS011;39608;55.630;37.864;2023-03-21T04:02:53;8.48;;;4.20;;
53714;SDS011;39608;55.630;37.864;2023-03-21T04:07:59;7.05;;;4.38;;
53714;SDS011;39608;55.630;37.864;2023-03-21T04:13:01;5.88;;;3.95;;
53714;SDS011;39608;55.630;37.864;2023-03-21T04:18:03;7.25;;;4.03;;
53714;SDS011;39608;55.630;37.864;2023-03-21T04:23:07;12.05;;;4.68;;
53714;SDS011;39608;55.630;37.864;2023-03-21T04:28:09;8.63;;;4.35;;
53714;SDS011;39608;55.630;37.864;2023-03-21T04:33:11;7.53;;;4.72;;
53714;SDS011;39608;55.630;37.864;2023-03-21T04:38:14;7.97;;;5.03;;
53714;SDS011;39608;55.630;37.864;2023-03-21T04:43:16;10.13;;;4.75;;
53714;SDS011;39608;55.630;37.864;2023-03-21T04:48:18;6.85;;;4.25;;
53714;SDS011;39608;55.630;37.864;2023-03-21T04:53:25;8.65;;;4.20;;
53714;SDS011;39608;55.630;37.864;2023-03-21T04:58:27;12.80;;;5.38;;
53714;SDS011;39608;55.630;37.864;2023-03-21T05:03:29;9.95;;;4.32;;
53714;SDS011;39608;55.630;37.864;2023-03-21T05:08:35;5.55;;;3.97;;
53714;SDS011;39608;55.630;37.864;2023-03-21T05:13:37;17.42;;;4.90;;
53714;SDS011;39608;55.630;37.864;2023-03-21T05:18:39;8.82;;;4.97;;
53714;SDS011;39608;55.630;37.864;2023-03-21T05:23:42;9.00;;;4.93;;
53714;SDS011;39608;55.630;37.864;2023-03-21T05:28:44;10.00;;;5.32;;
53714;SDS011;39608;55.630;37.864;2023-03-21T05:33:47;10.30;;;4.97;;
53714;SDS011;39608;55.630;37.864;2023-03-21T05:38:50;17.42;;;6.20;;
53714;SDS011;39608;55.630;37.864;2023-03-21T05:43:52;14.80;;;5.85;;
53714;SDS011;39608;55.630;37.864;2023-03-21T05:48:54;9.75;;;5.55;;
53714;SDS011;39608;55.630;37.864;2023-03-21T05:53:58;10.43;;;5.18;;
53714;SDS011;39608;55.630;37.864;2023-03-21T05:59:00;9.38;;;4.53;;
53714;SDS011;39608;55.630;37.864;2023-03-21T06:04:02;7.90;;;5.07;;
53714;SDS011;39608;55.630;37.864;2023-03-21T06:09:05;12.63;;;5.43;;
53714;SDS011;39608;55.630;37.864;2023-03-21T06:14:08;13.13;;;5.43;;
53714;SDS011;39608;55.630;37.864;2023-03-21T06:19:10;17.10;;;5.68;;
53714;SDS011;39608;55.630;37.864;2023-03-21T06:24:13;11.43;;;5.15;;
53714;SDS011;39608;55.630;37.864;2023-03-21T06:29:17;11.93;;;7.00;;
53714;SDS011;39608;55.630;37.864;2023-03-21T06:34:18;10.68;;;5.43;;
53714;SDS011;39608;55.630;37.864;2023-03-21T06:39:22;9.88;;;5.43;;
53714;SDS011;39608;55.630;37.864;2023-03-21T06:44:25;10.70;;;4.97;;
53714;SDS011;39608;55.630;37.864;2023-03-21T06:49:27;12.10;;;5.85;;
53714;SDS011;39608;55.630;37.864;2023-03-21T06:54:31;17.05;;;5.15;;
53714;SDS011;39608;55.630;37.864;2023-03-21T06:59:33;12.05;;;5.63;;
53714;SDS011;39608;55.630;37.864;2023-03-21T07:04:36;8.80;;;4.90;;
53714;SDS011;39608;55.630;37.864;2023-03-21T07:09:40;9.55;;;6.10;;
53714;SDS011;39608;55.630;37.864;2023-03-21T07:14:42;12.35;;;6.03;;
53714;SDS011;39608;55.630;37.864;2023-03-21T07:19:44;8.73;;;5.80;;
53714;SDS011;39608;55.630;37.864;2023-03-21T07:24:47;8.70;;;5.50;;
53714;SDS011;39608;55.630;37.864;2023-03-21T07:29:49;11.88;;;6.18;;
53714;SDS011;39608;55.630;37.864;2023-03-21T07:34:52;9.35;;;6.05;;
53714;SDS011;39608;55.630;37.864;2023-03-21T07:39:56;11.30;;;6.72;;
53714;SDS011;39608;55.630;37.864;2023-03-21T07:44:58;16.05;;;6.78;;
53714;SDS011;39608;55.630;37.864;2023-03-21T07:50:00;19.23;;;6.97;;
53714;SDS011;39608;55.630;37.864;2023-03-21T07:55:05;13.70;;;7.55;;
53714;SDS011;39608;55.630;37.864;2023-03-21T08:00:08;12.48;;;7.22;;
53714;SDS011;39608;55.630;37.864;2023-03-21T08:05:11;17.85;;;8.15;;
53714;SDS011;39608;55.630;37.864;2023-03-21T08:10:15;24.73;;;8.43;;
53714;SDS011;39608;55.630;37.864;2023-03-21T08:15:18;14.52;;;7.50;;
53714;SDS011;39608;55.630;37.864;2023-03-21T08:20:21;13.23;;;7.90;;
53714;SDS011;39608;55.630;37.864;2023-03-21T08:25:25;13.18;;;6.90;;
53714;SDS011;39608;55.630;37.864;2023-03-21T08:30:27;11.75;;;7.68;;
53714;SDS011;39608;55.630;37.864;2023-03-21T08:35:31;13.13;;;6.18;;
53714;SDS011;39608;55.630;37.864;2023-03-21T08:40:35;7.72;;;5.88;;
53714;SDS011;39608;55.630;37.864;2023-03-21T08:45:37;12.98;;;5.97;;
53714;SDS011;39608;55.630;37.864;2023-03-21T08:50:39;11.50;;;6.22;;
53714;SDS011;39608;55.630;37.864;2023-03-21T08:55:43;13.38;;;6.45;;
53714;SDS011;39608;55.630;37.864;2023-03-21T09:00:45;15.02;;;6.93;;
53714;SDS011;39608;55.630;37.864;2023-03-21T09:05:51;9.35;;;5.93;;
53714;SDS011;39608;55.630;37.864;2023-03-21T09:10:55;10.87;;;6.23;;
53714;SDS011;39608;55.630;37.864;2023-03-21T09:15:57;10.23;;;5.85;;
53714;SDS011;39608;55.630;37.864;2023-03-21T09:21:00;12.40;;;5.93;;
53714;SDS011;39608;55.630;37.864;2023-03-21T09:26:05;9.90;;;5.63;;
53714;SDS011;39608;55.630;37.864;2023-03-21T09:31:09;11.32;;;6.03;;
53714;SDS011;39608;55.630;37.864;2023-03-21T09:36:11;11.25;;;5.90;;
53714;SDS011;39608;55.630;37.864;2023-03-21T09:41:19;7.85;;;4.68;;
53714;SDS011;39608;55.630;37.864;2023-03-21T09:46:35;6.85;;;4.70;;
53714;SDS011;39608;55.630;37.864;2023-03-21T09:51:45;7.22;;;4.32;;
53714;SDS011;39608;55.630;37.864;2023-03-21T09:56:54;7.43;;;4.53;;
53714;SDS011;39608;55.630;37.864;2023-03-21T10:01:59;12.80;;;4.53;;
53714;SDS011;39608;55.630;37.864;2023-03-21T10:07:03;6.45;;;3.70;;
53714;SDS011;39608;55.630;37.864;2023-03-21T10:12:10;3.97;;;3.30;;
53714;SDS011;39608;55.630;37.864;2023-03-21T10:17:21;4.55;;;3.70;;
53714;SDS011;39608;55.630;37.864;2023-03-21T10:22:30;4.40;;;3.67;;
53714;SDS011;39608;55.630;37.864;2023-03-21T10:27:37;4.25;;;3.80;;
53714;SDS011;39608;55.630;37.864;2023-03-21T10:32:39;4.97;;;4.10;;
53714;SDS011;39608;55.630;37.864;2023-03-21T10:37:41;8.00;;;4.75;;
53714;SDS011;39608;55.630;37.864;2023-03-21T10:42:45;8.00;;;4.70;;
53714;SDS011;39608;55.630;37.864;2023-03-21T10:47:47;7.47;;;5.38;;
53714;SDS011;39608;55.630;37.864;2023-03-21T10:52:52;10.70;;;5.70;;
53714;SDS011;39608;55.630;37.864;2023-03-21T10:58:01;8.93;;;5.53;;
53714;SDS011;39608;55.630;37.864;2023-03-21T11:03:13;10.70;;;5.40;;
53714;SDS011;39608;55.630;37.864;2023-03-21T11:08:22;7.20;;;5.50;;
53714;SDS011;39608;55.630;37.864;2023-03-21T11:13:32;7.97;;;5.30;;
53714;SDS011;39608;55.630;37.864;2023-03-21T11:18:38;10.60;;;5.57;;
53714;SDS011;39608;55.630;37.864;2023-03-21T11:23:42;7.60;;;5.07;;
53714;SDS011;39608;55.630;37.864;2023-03-21T11:28:49;8.65;;;4.80;;
53714;SDS011;39608;55.630;37.864;2023-03-21T11:33:52;9.13;;;5.32;;
53714;SDS011;39608;55.630;37.864;2023-03-21T11:38:58;13.90;;;5.82;;
53714;SDS011;39608;55.630;37.864;2023-03-21T11:44:25;7.80;;;5.07;;
53714;SDS011;39608;55.630;37.864;2023-03-21T11:49:32;7.60;;;4.50;;
53714;SDS011;39608;55.630;37.864;2023-03-21T11:54:38;7.13;;;4.68;;
53714;SDS011;39608;55.630;37.864;2023-03-21T11:59:51;7.13;;;4.50;;
53714;SDS011;39608;55.630;37.864;2023-03-21T12:05:01;4.70;;;4.07;;
53714;SDS011;39608;55.630;37.864;2023-03-21T12:10:23;10.63;;;4.80;;
53714;SDS011;39608;55.630;37.864;2023-03-21T12:15:33;8.20;;;4.53;;
53714;SDS011;39608;55.630;37.864;2023-03-21T12:20:42;5.65;;;3.85;;
53714;SDS011;39608;55.630;37.864;2023-03-21T12:25:48;5.97;;;3.55;;
53714;SDS011;39608;55.630;37.864;2023-03-21T12:30:58;5.97;;;3.80;;
53714;SDS011;39608;55.630;37.864;2023-03-21T12:36:13;4.45;;;3.70;;
53714;SDS011;39608;55.630;37.864;2023-03-21T12:41:27;4.68;;;3.47;;
53714;SDS011;39608;55.630;37.864;2023-03-21T12:46:36;4.07;;;3.20;;
53714;SDS011;39608;55.630;37.864;2023-03-21T12:51:45;4.53;;;3.40;;
53714;SDS011;39608;55.630;37.864;2023-03-21T12:56:51;4.95;;;3.17;;
53714;SDS011;39608;55.630;37.864;2023-03-21T13:01:59;5.53;;;2.80;;
53714;SDS011;39608;55.630;37.864;2023-03-21T13:07:16;3.92;;;2.60;;
53714;SDS011;39608;55.630;37.864;2023-03-21T13:12:31;6.53;;;2.20;;
53714;SDS011;39608;55.630;37.864;2023-03-21T13:17:44;10.98;;;2.70;;
53714;SDS011;39608;55.630;37.864;2023-03-21T13:22:51;8.10;;;2.90;;
53714;SDS011;39608;55.630;37.864;2023-03-21T13:27:54;6.28;;;2.78;;
53714;SDS011;39608;55.630;37.864;2023-03-21T13:33:05;7.72;;;2.40;;
53714;SDS011;39608;55.630;37.864;2023-03-21T13:38:10;5.47;;;3.17;;
53714;SDS011;39608;55.630;37.864;2023-03-21T13:43:33;4.60;;;2.60;;
53714;SDS011;39608;55.630;37.864;2023-03-21T13:48:43;2.55;;;2.22;;
53714;SDS011;39608;55.630;37.864;2023-03-21T13:59:01;3.25;;;2.30;;
53714;SDS011;39608;55.630;37.864;2023-03-21T14:04:09;4.47;;;2.30;;
53714;SDS011;39608;55.630;37.864;2023-03-21T14:09:16;3.63;;;2.08;;
53714;SDS011;39608;55.630;37.864;2023-03-21T14:14:22;5.60;;;2.05;;
53714;SDS011;39608;55.630;37.864;2023-03-21T14:24:32;2.17;;;1.63;;
53714;SDS011;39608;55.630;37.864;2023-03-21T14:29:34;3.97;;;2.08;;
53714;SDS011;39608;55.630;37.864;2023-03-21T14:34:38;2.92;;;2.05;;
53714;SDS011;39608;55.630;37.864;2023-03-21T14:39:40;8.18;;;2.53;;
53714;SDS011;39608;55.630;37.864;2023-03-21T14:44:46;6.05;;;2.25;;
53714;SDS011;39608;55.630;37.864;2023-03-21T14:49:51;5.13;;;2.35;;
53714;SDS011;39608;55.630;37.864;2023-03-21T14:54:53;4.03;;;2.50;;
53714;SDS011;39608;55.630;37.864;2023-03-21T14:59:57;4.18;;;2.38;;
53714;SDS011;39608;55.630;37.864;2023-03-21T15:05:08;5.68;;;2.78;;
53714;SDS011;39608;55.630;37.864;2023-03-21T15:10:16;5.20;;;2.78;;
53714;SDS011;39608;55.630;37.864;2023-03-21T15:15:19;3.85;;;2.58;;
53714;SDS011;39608;55.630;37.864;2023-03-21T15:20:24;7.65;;;4.28;;
53714;SDS011;39608;55.630;37.864;2023-03-21T15:25:29;7.50;;;4.05;;
53714;SDS011;39608;55.630;37.864;2023-03-21T15:30:35;5.35;;;3.80;;
53714;SDS011;39608;55.630;37.864;2023-03-21T15:35:39;8.95;;;4.50;;
53714;SDS011;39608;55.630;37.864;2023-03-21T15:40:45;10.23;;;4.47;;
53714;SDS011;39608;55.630;37.864;2023-03-21T15:45:47;10.98;;;4.75;;
53714;SDS011;39608;55.630;37.864;2023-03-21T15:50:52;10.95;;;4.60;;
53714;SDS011;39608;55.630;37.864;2023-03-21T15:55:59;9.38;;;4.95;;
53714;SDS011;39608;55.630;37.864;2023-03-21T16:01:03;10.63;;;5.10;;
53714;SDS011;39608;55.630;37.864;2023-03-21T16:06:15;9.95;;;5.78;;
53714;SDS011;39608;55.630;37.864;2023-03-21T16:11:22;11.55;;;4.97;;
53714;SDS011;39608;55.630;37.864;2023-03-21T16:16:27;9.73;;;5.03;;
53714;SDS011;39608;55.630;37.864;2023-03-21T16:21:32;9.52;;;4.57;;
53714;SDS011;39608;55.630;37.864;2023-03-21T16:26:38;8.43;;;5.38;;
53714;SDS011;39608;55.630;37.864;2023-03-21T16:36:49;9.55;;;4.53;;
53714;SDS011;39608;55.630;37.864;2023-03-21T16:41:51;9.20;;;4.72;;
53714;SDS011;39608;55.630;37.864;2023-03-21T16:46:53;12.00;;;4.63;;
53714;SDS011;39608;55.630;37.864;2023-03-21T16:51:56;8.82;;;4.32;;
53714;SDS011;39608;55.630;37.864;2023-03-21T16:56:58;9.13;;;4.47;;
53714;SDS011;39608;55.630;37.864;2023-03-21T17:02:08;7.38;;;4.45;;
53714;SDS011;39608;55.630;37.864;2023-03-21T17:07:14;15.68;;;4.55;;
53714;SDS011;39608;55.630;37.864;2023-03-21T17:12:17;5.95;;;3.95;;
53714;SDS011;39608;55.630;37.864;2023-03-21T17:17:19;5.80;;;4.07;;
53714;SDS011;39608;55.630;37.864;2023-03-21T17:22:22;5.90;;;3.97;;
53714;SDS011;39608;55.630;37.864;2023-03-21T17:27:24;9.95;;;4.10;;
53714;SDS011;39608;55.630;37.864;2023-03-21T17:32:26;7.63;;;4.50;;
53714;SDS011;39608;55.630;37.864;2023-03-21T17:37:29;10.73;;;4.55;;
53714;SDS011;39608;55.630;37.864;2023-03-21T17:42:31;7.25;;;4.53;;
53714;SDS011;39608;55.630;37.864;2023-03-21T17:47:34;9.30;;;5.10;;
53714;SDS011;39608;55.630;37.864;2023-03-21T17:52:40;12.25;;;5.55;;
53714;SDS011;39608;55.630;37.864;2023-03-21T17:57:42;13.52;;;6.45;;
53714;SDS011;39608;55.630;37.864;2023-03-21T18:02:44;12.45;;;5.65;;
53714;SDS011;39608;55.630;37.864;2023-03-21T18:07:47;10.43;;;5.53;;
53714;SDS011;39608;55.630;37.864;2023-03-21T18:12:50;10.50;;;5.18;;
53714;SDS011;39608;55.630;37.864;2023-03-21T18:17:55;14.02;;;5.63;;
53714;SDS011;39608;55.630;37.864;2023-03-21T18:22:58;12.55;;;6.50;;
53714;SDS011;39608;55.630;37.864;2023-03-21T18:28:00;16.70;;;7.28;;
53714;SDS011;39608;55.630;37.864;2023-03-21T18:33:02;22.63;;;9.57;;
53714;SDS011;39608;55.630;37.864;2023-03-21T18:38:05;12.52;;;8.70;;
53714;SDS011;39608;55.630;37.864;2023-03-21T18:43:07;13.68;;;8.68;;
53714;SDS011;39608;55.630;37.864;2023-03-21T18:48:09;13.02;;;8.82;;
53714;SDS011;39608;55.630;37.864;2023-03-21T18:53:14;15.38;;;9.57;;
53714;SDS011;39608;55.630;37.864;2023-03-21T18:58:16;16.30;;;9.77;;
53714;SDS011;39608;55.630;37.864;2023-03-21T19:03:18;18.40;;;9.98;;
53714;SDS011;39608;55.630;37.864;2023-03-21T19:08:22;26.48;;;11.85;;
53714;SDS011;39608;55.630;37.864;2023-03-21T19:13:25;35.85;;;13.18;;
53714;SDS011;39608;55.630;37.864;2023-03-21T19:18:26;27.52;;;13.30;;
53714;SDS011;39608;55.630;37.864;2023-03-21T19:23:30;22.15;;;12.05;;
53714;SDS011;39608;55.630;37.864;2023-03-21T19:28:33;17.95;;;10.95;;
53714;SDS011;39608;55.630;37.864;2023-03-21T19:33:35;18.02;;;10.95;;
53714;SDS011;39608;55.630;37.864;2023-03-21T19:38:38;15.95;;;10.40;;
53714;SDS011;39608;55.630;37.864;2023-03-21T19:43:40;15.07;;;9.63;;
53714;SDS011;39608;55.630;37.864;2023-03-21T19:48:42;13.68;;;8.85;;
53714;SDS011;39608;55.630;37.864;2023-03-21T19:53:45;10.63;;;7.85;;
53714;SDS011;39608;55.630;37.864;2023-03-21T19:58:47;13.23;;;8.10;;
53714;SDS011;39608;55.630;37.864;2023-03-21T20:03:50;9.77;;;7.45;;
53714;SDS011;39608;55.630;37.864;2023-03-21T20:08:53;12.23;;;7.93;;
53714;SDS011;39608;55.630;37.864;2023-03-21T20:13:56;11.13;;;7.10;;
53714;SDS011;39608;55.630;37.864;2023-03-21T20:18:59;10.63;;;6.95;;
53714;SDS011;39608;55.630;37.864;2023-03-21T20:24:02;9.80;;;6.78;;
53714;SDS011;39608;55.630;37.864;2023-03-21T20:29:04;11.23;;;7.20;;
53714;SDS011;39608;55.630;37.864;2023-03-21T20:34:06;11.18;;;7.72;;
53714;SDS011;39608;55.630;37.864;2023-03-21T20:39:10;12.80;;;7.38;;
53714;SDS011;39608;55.630;37.864;2023-03-21T20:44:12;10.27;;;6.50;;
53714;SDS011;39608;55.630;37.864;2023-03-21T20:49:17;9.23;;;6.45;;
53714;SDS011;39608;55.630;37.864;2023-03-21T20:54:23;10.45;;;7.00;;
53714;SDS011;39608;55.630;37.864;2023-03-21T20:59:25;10.52;;;7.30;;
53714;SDS011;39608;55.630;37.864;2023-03-21T21:04:27;10.23;;;6.03;;
53714;SDS011;39608;55.630;37.864;2023-03-21T21:09:32;10.73;;;7.60;;
53714;SDS011;39608;55.630;37.864;2023-03-21T21:14:34;9.50;;;6.15;;
53714;SDS011;39608;55.630;37.864;2023-03-21T21:19:36;9.88;;;6.20;;
53714;SDS011;39608;55.630;37.864;2023-03-21T21:24:39;8.02;;;5.85;;
53714;SDS011;39608;55.630;37.864;2023-03-21T21:29:41;10.10;;;6.22;;
53714;SDS011;39608;55.630;37.864;2023-03-21T21:34:47;8.48;;;5.78;;
53714;SDS011;39608;55.630;37.864;2023-03-21T21:39:50;10.90;;;6.28;;
53714;SDS011;39608;55.630;37.864;2023-03-21T21:44:53;7.47;;;5.82;;
53714;SDS011;39608;55.630;37.864;2023-03-21T21:49:55;9.73;;;5.63;;
53714;SDS011;39608;55.630;37.864;2023-03-21T21:54:59;8.25;;;6.20;;
53714;SDS011;39608;55.630;37.864;2023-03-21T22:00:03;7.25;;;5.63;;
53714;SDS011;39608;55.630;37.864;2023-03-21T22:05:11;9.38;;;6.30;;
53714;SDS011;39608;55.630;37.864;2023-03-21T22:10:15;9.32;;;5.47;;
53714;SDS011;39608;55.630;37.864;2023-03-21T22:15:17;9.18;;;6.18;;
53714;SDS011;39608;55.630;37.864;2023-03-21T22:20:21;8.35;;;5.88;;
53714;SDS011;39608;55.630;37.864;2023-03-21T22:25:25;8.45;;;5.80;;
53714;SDS011;39608;55.630;37.864;2023-03-21T22:30:27;9.75;;;5.88;;
53714;SDS011;39608;55.630;37.864;2023-03-21T22:35:29;6.90;;;5.00;;
53714;SDS011;39608;55.630;37.864;2023-03-21T22:40:32;8.68;;;5.15;;
53714;SDS011;39608;55.630;37.864;2023-03-21T22:45:34;10.48;;;5.47;;
53714;SDS011;39608;55.630;37.864;2023-03-21T22:50:36;6.72;;;4.75;;
53714;SDS011;39608;55.630;37.864;2023-03-21T22:55:39;8.75;;;5.13;;
53714;SDS011;39608;55.630;37.864;2023-03-21T23:00:41;8.13;;;5.13;;
53714;SDS011;39608;55.630;37.864;2023-03-21T23:05:43;7.45;;;4.80;;
53714;SDS011;39608;55.630;37.864;2023-03-21T23:10:47;6.95;;;4.43;;
53714;SDS011;39608;55.630;37.864;2023-03-21T23:15:49;7.88;;;5.05;;
53714;SDS011;39608;55.630;37.864;2023-03-21T23:20:51;8.27;;;4.53;;
53714;SDS011;39608;55.630;37.864;2023-03-21T23:25:55;7.50;;;4.80;;
53714;SDS011;39608;55.630;37.864;2023-03-21T23:30:57;7.60;;;4.47;;
53714;SDS011;39608;55.630;37.864;2023-03-21T23:35:59;8.57;;;5.03;;
53714;SDS011;39608;55.630;37.864;2023-03-21T23:41:06;5.90;;;4.05;;
53714;SDS011;39608;55.630;37.864;2023-03-21T23:46:09;7.00;;;4.22;;
53714;SDS011;39608;55.630;37.864;2023-03-21T23:51:12;6.60;;;4.15;;
53714;SDS011;39608;55.630;37.864;2023-03-21T23:56:18;5.50;;;4.20;;
